Aérodrome :
LOGIN :

S'inscrire | Disclaimer

   EN    FR    IT 

 










Légende :    VFR   VFR Marginal   IFR   IFR Intensif   IFR Très Intensif
Visi : 
Plafond : 
>= 8 km
>= 3000ft
5 à 8 km
1000 à 3000 ft
1500m à 5 km
500 à 1000 ft
800 à 1500m
200 à 500 ft
< 800m
< 200 ft
Symboles :   Orages  Brouillard  Fortes neiges  Fortes précipitations  Vent > 20 kt
SIGMETs :   Divers  Orages  Givrage  Turbulence  Onde Orograph.  Cendres Volcan.






- Altitude de l'aérodrome : 622 ft
- Code IATA : BRS


EGGD - Bristol Int.

DERNIER METAR :
  • 071420Z AUTO 24010KT 9999 OVC017 09/07 Q1013

METARs EXPIRÉS :
  • 071350Z AUTO 24013KT 9999 BKN013 OVC018 09/07 Q1013
  • 071320Z AUTO 24013KT 9999 OVC014 09/07 Q1013
  • 071250Z AUTO 24012KT 9999 OVC021 09/07 Q1013
  • 071220Z AUTO 24016KT 9999 SCT010 OVC021 09/07 Q1013
  • 071150Z AUTO 25013KT 9999 BKN023 09/07 Q1014

TAF TAF EGGD
Valide du 07 à 12h jusqu'au 08 à 12h UTC


071105Z 0712/0812 24009KT 9999 SCT020
PROB30
TEMPO 0712/0717 4000 -DZ BKN009
BECMG 0717/0720 20016G26KT BKN009
PROB40
TEMPO 0720/0723 21020G36KT
TEMPO 0723/0804 21020G36KT 6000 RA
PROB30
TEMPO 0723/0803 2000 +RA BKN004
BECMG 0803/0806 26014KT
TEMPO 0803/0809 27017G27KT
PROB30
TEMPO 0803/0805 4000 BR BKN004
PROB30
TEMPO 0809/0812 27017G27KT 6000 SHRA
ATIS : +44 1275 473 666



MET'MAP, la Météo Aéronautique d'un coup d'oeil ! - Copyright ORBIFLY Décembre 2007 - Disclaimer

ORBIFLY MET'MAP TEAM :

Programmation & Développement : Alexandra Zaïnal
Sur une idée originale de : Baudouin d'Aumeries
Assistance à la programmation : Marc-Olivier Méhu
Soutien technique & logistique : Manuel Goepfert

Contact : metmap@orbifly.com




SOURCES & CREDITS :

   NOAA